Gainesville, FL

4:01 PM EST on March 03, 2015 (GMT -0500)
KC4MHH | Change Station
CLOSE
Current Station
Personal Weather Station
Location: Gainesville, FL
Elevation: 168 ft
Nearby Weather Stations

Elev 168 ft 29.66 °N, 82.33 °W | Updated 17 seconds ago

Clear
Clear
81.6 °F
Feels Like 83 °F
N
1.2
Wind Variable Wind from SSW
Gusts 1.2 mph

Today
High -- | Low -- °F
--% Chance of Precip.
Yesterday
High -- | Low -- °F
Precip. -- in
6:53 AM 6:30 PM
Waxing Gibbous, 97% visible
Pressure 30.11 in
Visibility 10.0 miles
Clouds Scattered Clouds 5000 ft
Heat Index 83 °F
Dew Point 63 °F
Humidity 54%
Rainfall 0.00 in
Snow Depth Not available.
UV 3 out of 12
Pollen 9.00 out of 12
Air Quality Not available.
Flu Activity Not available.
METAR KGNV 032053Z 15008KT 10SM SCT050 28/16 A3011 RMK AO2 SLP195 T02830161 56024

More Conditions Fewer Conditions

Pressure 30.11 in
Visibility 10.0 miles
Clouds Scattered Clouds 5000 ft
Heat Index 83 °F
Dew Point 63 °F
Humidity 54%
Rainfall 0.00 in
Snow Depth Not available.
UV 3 out of 12
Pollen 9.00 out of 12
Air Quality Not available.
Flu Activity Not available.
METAR KGNV 032053Z 15008KT 10SM SCT050 28/16 A3011 RMK AO2 SLP195 T02830161 56024

More Conditions Fewer Conditions

10-Day Weather Forecast

Almanac

Astronomy

Mar. 03, 2015 Rise Set
Actual Time
Civil Twilight
Nautical Twilight
Astronomical Twilight
Moon
Length of Visible Light
Length of Day
Tomorrow will be .
, % of the Moon is Illuminated

Today's Extremes

State Highs State Lows

Community

WunderPhotos

Upload Photos

1,802,254 photos uploaded!

WunderBlogs® & News

Nearby

Air Quality

  Air Quality AQ Index Pollutant
Not available.

Snow Depth

Station Depth Elevation

Earthquake Activity

City Distance Mag. Time & Date
Minimum magnitude displayed is 2.5.

Coastal Water Temperatures

Place Temperature

Nearby Weather Stations